Time;durP1;ratioP1;P1;durP2;ratioP2;P2;SDS_P1;SDS_P2;PMS_P1;PMS_P2;Temp;Humidity;BMP_temperature;BMP_pressure;BME280_temperature;BME280_humidity;BME280_pressure;Samples;Min_cycle;Max_cycle;Signal;HPM_P1;HPM_P2
2023/01/20 00:04:40;;;;;;;27.80;17.50;;;23.10;53.60;;;;;;221701;1257;22527;-53
2023/01/20 00:09:44;;;;;;;24.20;17.40;;;23.20;54.90;;;;;;221650;1256;24070;-52
2023/01/20 00:14:48;;;;;;;25.10;17.60;;;23.30;54.10;;;;;;221717;1257;25375;-53
2023/01/20 00:19:52;;;;;;;28.40;19.40;;;23.20;53.90;;;;;;221726;1262;24273;-51
2023/01/20 00:24:56;;;;;;;26.30;18.40;;;23.10;54.00;;;;;;221983;1268;22787;-52
2023/01/20 00:30:00;;;;;;;27.60;19.00;;;23.00;54.10;;;;;;221647;1259;22776;-53
2023/01/20 00:35:09;;;;;;;27.10;18.40;;;22.80;54.20;;;;;;221594;1257;23455;-51
2023/01/20 00:40:14;;;;;;;26.40;18.70;;;22.90;54.30;;;;;;221424;1269;22537;-54
2023/01/20 00:45:18;;;;;;;25.20;18.40;;;22.90;54.10;;;;;;221739;1263;26190;-53
2023/01/20 00:50:22;;;;;;;27.50;19.80;;;22.70;54.20;;;;;;224782;1268;24069;-52
2023/01/20 00:55:50;;;;;;;26.70;18.70;;;22.60;54.20;;;;;;223033;1270;22570;-50
2023/01/20 01:00:56;;;;;;;27.80;18.70;;;22.50;54.30;;;;;;221755;1259;25359;-50
2023/01/20 01:06:10;;;;;;;25.00;18.90;;;22.40;54.50;;;;;;221595;1271;24377;-52
2023/01/20 01:11:49;;;;;;;26.50;18.90;;;22.20;54.70;;;;;;221790;1256;24066;-54
2023/01/20 01:16:53;;;;;;;29.30;18.90;;;22.20;54.90;;;;;;222000;1270;23551;-51
2023/01/20 01:21:59;;;;;;;25.00;19.00;;;22.10;54.80;;;;;;221788;1257;25290;-53
2023/01/20 01:27:04;;;;;;;25.30;19.40;;;22.00;54.90;;;;;;221876;1268;24238;-51
2023/01/20 01:32:08;;;;;;;25.80;19.70;;;21.90;54.90;;;;;;221824;1260;22524;-51
2023/01/20 01:37:12;;;;;;;24.60;19.30;;;21.90;54.90;;;;;;229930;1263;22167;-52
2023/01/20 01:42:18;;;;;;;27.00;20.10;;;21.90;55.00;;;;;;229842;1263;22289;-53
2023/01/20 01:47:23;;;;;;;28.90;20.50;;;22.00;54.10;;;;;;228536;1263;25453;-51
2023/01/20 01:52:28;;;;;;;25.80;19.40;;;22.00;53.70;;;;;;222786;1269;22783;-52
2023/01/20 01:57:34;;;;;;;28.10;19.60;;;21.90;54.10;;;;;;222133;1260;24172;-49
2023/01/20 02:09:01;;;;;;;25.60;19.90;;;21.70;54.60;;;;;;221651;1263;186871;-49
2023/01/20 02:14:06;;;;;;;25.50;19.40;;;22.00;54.60;;;;;;221664;1263;22758;-52
2023/01/20 02:19:32;;;;;;;25.30;18.40;;;22.30;54.10;;;;;;222001;1266;22548;-51
2023/01/20 02:25:20;;;;;;;27.20;19.80;;;22.60;53.20;;;;;;221686;1260;24061;-53
2023/01/20 02:30:53;;;;;;;26.20;20.00;;;22.70;53.20;;;;;;221825;1263;22596;-53
2023/01/20 02:36:10;;;;;;;25.60;18.90;;;23.00;52.10;;;;;;221846;1268;22622;-51
2023/01/20 02:41:22;;;;;;;26.60;20.20;;;23.00;52.10;;;;;;222030;1268;24020;-52
2023/01/20 02:46:35;;;;;;;26.00;20.80;;;23.00;51.80;;;;;;221650;1269;22586;-50
2023/01/20 02:52:13;;;;;;;25.30;20.70;;;23.00;52.20;;;;;;222035;1269;23842;-51
2023/01/20 02:57:24;;;;;;;25.50;19.80;;;23.10;51.70;;;;;;221498;1254;22524;-52
2023/01/20 03:02:33;;;;;;;24.50;19.50;;;23.10;51.50;;;;;;221702;1270;22573;-52
2023/01/20 03:07:41;;;;;;;25.20;20.40;;;23.10;51.40;;;;;;221777;1263;22579;-51
2023/01/20 03:12:51;;;;;;;24.80;19.10;;;23.20;51.30;;;;;;221645;1269;24197;-52
2023/01/20 03:17:55;;;;;;;25.30;19.40;;;23.20;51.20;;;;;;221914;1270;22636;-53
2023/01/20 03:22:59;;;;;;;23.70;19.10;;;23.30;51.10;;;;;;221519;1269;24356;-52
2023/01/20 03:28:04;;;;;;;24.10;19.80;;;23.30;51.00;;;;;;221794;1270;23305;-50
2023/01/20 03:33:08;;;;;;;24.70;20.00;;;23.40;51.10;;;;;;221854;1270;22683;-54
2023/01/20 03:38:13;;;;;;;26.40;21.20;;;23.40;50.90;;;;;;221682;1271;22600;-52
2023/01/20 03:43:27;;;;;;;23.70;19.50;;;23.40;51.20;;;;;;221817;1259;22782;-51
2023/01/20 03:48:40;;;;;;;27.20;21.50;;;23.40;50.90;;;;;;221596;1264;22527;-54
2023/01/20 03:53:58;;;;;;;24.50;20.20;;;23.30;51.00;;;;;;221424;1253;22623;-52
2023/01/20 03:59:05;;;;;;;25.20;21.20;;;23.10;51.30;;;;;;221711;1263;22515;-51
2023/01/20 04:04:15;;;;;;;23.50;20.10;;;23.00;51.30;;;;;;221632;1270;24267;-51
2023/01/20 04:09:26;;;;;;;25.20;21.20;;;22.90;51.50;;;;;;221732;1269;24409;-52
2023/01/20 04:14:30;;;;;;;25.60;20.40;;;22.70;51.70;;;;;;221759;1264;22530;-52
2023/01/20 04:19:35;;;;;;;26.70;21.10;;;22.60;52.00;;;;;;221973;1263;22524;-51
2023/01/20 04:24:53;;;;;;;25.20;21.50;;;22.60;52.00;;;;;;221670;1269;24319;-52
2023/01/20 04:29:57;;;;;;;24.70;21.20;;;22.40;52.40;;;;;;221824;1263;22538;-51
2023/01/20 04:35:01;;;;;;;27.00;21.30;;;22.40;52.50;;;;;;221793;1263;24346;-51
2023/01/20 04:40:07;;;;;;;25.10;21.00;;;22.20;52.70;;;;;;221655;1260;22542;-51
2023/01/20 04:45:15;;;;;;;27.00;22.10;;;22.10;52.90;;;;;;222121;1264;24302;-51
2023/01/20 04:50:19;;;;;;;27.10;22.30;;;22.10;52.90;;;;;;221697;1258;24186;-53
2023/01/20 04:55:25;;;;;;;27.90;21.80;;;22.00;52.90;;;;;;221819;1266;22651;-49
2023/01/20 05:00:29;;;;;;;26.50;22.30;;;21.90;53.10;;;;;;221849;1263;22656;-52
2023/01/20 05:05:33;;;;;;;29.30;22.60;;;21.90;53.20;;;;;;221650;1271;22521;-52
2023/01/20 05:10:37;;;;;;;28.00;22.60;;;21.80;53.90;;;;;;221860;1270;22749;-49
2023/01/20 05:15:42;;;;;;;30.70;23.40;;;21.70;53.90;;;;;;221800;1265;24082;-51
2023/01/20 05:20:48;;;;;;;28.20;22.30;;;21.60;53.30;;;;;;221914;1264;25329;-51
2023/01/20 05:25:52;;;;;;;28.60;23.10;;;21.60;53.50;;;;;;221842;1267;22994;-53
2023/01/20 05:30:56;;;;;;;29.70;22.80;;;21.90;53.30;;;;;;221931;1270;22739;-54
2023/01/20 05:36:06;;;;;;;25.30;22.00;;;22.20;53.40;;;;;;222018;1269;22530;-52
2023/01/20 05:41:11;;;;;;;28.20;21.90;;;22.50;52.80;;;;;;221920;1264;25552;-52
2023/01/20 05:46:15;;;;;;;28.60;21.60;;;22.70;52.20;;;;;;221790;1270;22531;-52
2023/01/20 05:51:20;;;;;;;27.00;22.50;;;22.70;52.20;;;;;;221643;1264;24068;-51
2023/01/20 05:56:24;;;;;;;27.30;22.50;;;22.80;51.60;;;;;;221714;1268;22592;-52
2023/01/20 06:01:28;;;;;;;31.50;23.60;;;23.00;50.80;;;;;;221841;1270;22544;-52
2023/01/20 06:06:32;;;;;;;28.00;22.60;;;23.00;50.80;;;;;;221758;1261;22577;-54
2023/01/20 06:11:36;;;;;;;27.90;21.90;;;23.00;50.80;;;;;;222097;1264;22738;-52
2023/01/20 06:16:40;;;;;;;26.70;21.80;;;23.00;50.70;;;;;;221933;1263;22625;-52
2023/01/20 06:21:46;;;;;;;26.60;22.70;;;23.00;50.70;;;;;;221871;1270;25369;-51
2023/01/20 06:26:50;;;;;;;27.90;23.20;;;23.10;50.60;;;;;;221745;1263;22563;-52
2023/01/20 06:31:54;;;;;;;25.60;21.60;;;23.10;50.50;;;;;;221903;1264;25359;-54
2023/01/20 06:36:58;;;;;;;26.90;22.90;;;23.10;50.30;;;;;;221853;1263;22560;-53
2023/01/20 06:42:02;;;;;;;27.70;23.00;;;23.20;50.30;;;;;;221995;1264;26591;-53
2023/01/20 06:47:07;;;;;;;29.40;22.30;;;23.20;50.20;;;;;;221727;1254;26640;-52
2023/01/20 06:52:11;;;;;;;26.70;22.90;;;23.30;50.30;;;;;;221913;1265;22710;-52
2023/01/20 06:57:15;;;;;;;30.60;23.20;;;23.30;50.50;;;;;;221944;1266;24231;-54
2023/01/20 07:02:19;;;;;;;31.10;23.30;;;23.40;50.30;;;;;;221643;1269;22592;-55
2023/01/20 07:07:23;;;;;;;28.60;23.50;;;23.30;50.80;;;;;;221721;1270;22606;-55
2023/01/20 07:12:27;;;;;;;30.10;23.00;;;23.40;51.30;;;;;;221682;1267;22544;-55
2023/01/20 07:17:31;;;;;;;30.20;22.70;;;23.40;51.20;;;;;;221751;1264;22577;-59
2023/01/20 07:22:35;;;;;;;31.60;23.40;;;23.30;51.30;;;;;;221992;1270;26249;-56
2023/01/20 07:27:41;;;;;;;32.30;22.60;;;23.10;52.20;;;;;;221830;1253;24206;-55
2023/01/20 07:32:45;;;;;;;34.60;22.20;;;23.10;52.60;;;;;;221601;1263;22530;-55
2023/01/20 07:37:49;;;;;;;33.70;24.90;;;22.90;53.10;;;;;;221506;1260;24202;-56
2023/01/20 07:42:53;;;;;;;31.20;23.80;;;23.00;52.80;;;;;;221636;1270;22658;-55
2023/01/20 07:47:56;;;;;;;32.60;24.70;;;23.00;52.90;;;;;;221520;1259;23625;-55
2023/01/20 07:53:01;;;;;;;40.30;24.30;;;22.90;53.20;;;;;;221658;1270;22531;-58
2023/01/20 07:58:05;;;;;;;33.90;23.40;;;22.90;53.30;;;;;;221588;1270;24274;-58
2023/01/20 08:03:09;;;;;;;33.80;22.90;;;22.90;53.30;;;;;;221434;1257;22953;-57
2023/01/20 08:08:13;;;;;;;34.00;24.20;;;22.70;53.50;;;;;;221630;1270;23294;-56
2023/01/20 08:13:17;;;;;;;37.30;26.90;;;22.70;53.40;;;;;;221539;1270;24209;-58
2023/01/20 08:18:21;;;;;;;32.90;24.00;;;22.60;52.60;;;;;;229799;1264;22161;-57
2023/01/20 08:23:25;;;;;;;30.80;24.00;;;22.40;54.10;;;;;;228145;1264;23402;-58
2023/01/20 08:28:30;;;;;;;29.40;23.70;;;22.40;53.40;;;;;;221378;1267;22687;-58
2023/01/20 08:33:34;;;;;;;31.40;24.40;;;22.40;53.40;;;;;;221532;1264;24182;-58
2023/01/20 08:38:40;;;;;;;34.40;25.40;;;22.40;53.40;;;;;;221704;1256;23468;-59
2023/01/20 08:43:44;;;;;;;29.80;25.00;;;22.30;53.80;;;;;;222007;1253;24206;-57
2023/01/20 08:48:49;;;;;;;32.90;23.50;;;22.30;53.30;;;;;;221534;1254;22622;-57
2023/01/20 08:53:53;;;;;;;31.00;23.80;;;22.30;53.30;;;;;;221799;1264;22556;-57
2023/01/20 08:58:57;;;;;;;30.50;25.20;;;22.30;53.10;;;;;;221335;1264;22729;-59
2023/01/20 09:04:01;;;;;;;31.90;23.20;;;22.20;53.30;;;;;;221837;1270;26671;-58
2023/01/20 09:09:10;;;;;;;34.60;23.60;;;22.20;53.30;;;;;;221423;1260;23866;-58
2023/01/20 09:14:15;;;;;;;29.30;23.40;;;22.20;53.40;;;;;;221674;1257;24253;-58
2023/01/20 09:19:19;;;;;;;30.10;23.60;;;22.00;53.60;;;;;;221649;1257;22552;-58
2023/01/20 09:24:23;;;;;;;27.40;22.70;;;21.90;53.50;;;;;;221732;1256;23210;-59
2023/01/20 09:29:27;;;;;;;29.30;23.40;;;22.10;53.00;;;;;;221812;1251;22552;-57
2023/01/20 09:34:31;;;;;;;29.30;23.60;;;22.00;53.00;;;;;;221744;1270;22535;-57
2023/01/20 09:45:21;;;;;;;28.10;23.50;;;21.90;53.10;;;;;;221710;1270;22528;-58
2023/01/20 09:56:17;;;;;;;30.90;23.20;;;21.90;53.30;;;;;;221756;1267;23877;-56
2023/01/20 10:01:43;;;;;;;28.10;24.60;;;21.70;53.70;;;;;;221540;1257;25457;-58
2023/01/20 10:07:02;;;;;;;27.20;23.60;;;21.70;53.50;;;;;;221837;1258;23921;-58
2023/01/20 10:12:13;;;;;;;29.50;23.40;;;21.90;53.00;;;;;;221538;1260;22637;-57
2023/01/20 10:17:37;;;;;;;30.50;23.00;;;21.70;53.20;;;;;;221520;1267;24394;-58
2023/01/20 10:23:03;;;;;;;28.60;23.40;;;21.70;53.40;;;;;;221437;1270;25437;-58
2023/01/20 10:28:18;;;;;;;27.20;22.20;;;21.70;53.50;;;;;;221590;1257;22533;-58
2023/01/20 10:33:31;;;;;;;27.10;22.60;;;22.20;52.30;;;;;;221588;1270;24050;-59
2023/01/20 10:38:45;;;;;;;23.90;20.30;;;22.50;51.50;;;;;;221650;1264;25414;-56
2023/01/20 10:43:49;;;;;;;26.70;22.50;;;22.70;51.10;;;;;;221457;1270;23206;-58
2023/01/20 10:48:53;;;;;;;27.50;21.90;;;22.80;50.80;;;;;;221587;1264;25103;-55
2023/01/20 10:53:57;;;;;;;26.10;21.70;;;22.80;50.80;;;;;;221539;1254;24238;-57
2023/01/20 10:59:28;;;;;;;24.50;21.80;;;23.00;50.50;;;;;;221678;1267;22557;-57
2023/01/20 11:04:34;;;;;;;23.10;20.60;;;23.00;50.50;;;;;;221569;1263;23906;-58
2023/01/20 11:09:41;;;;;;;24.20;20.30;;;23.00;50.80;;;;;;221847;1263;25251;-58
2023/01/20 11:14:46;;;;;;;25.00;20.40;;;23.00;51.10;;;;;;221563;1263;23912;-59
2023/01/20 11:19:51;;;;;;;22.30;19.60;;;23.00;51.00;;;;;;221838;1258;22731;-58
2023/01/20 11:24:58;;;;;;;24.00;20.10;;;23.10;51.00;;;;;;221712;1261;24308;-58
2023/01/20 11:30:05;;;;;;;22.90;18.90;;;23.10;50.60;;;;;;221627;1258;24215;-57
2023/01/20 11:35:23;;;;;;;22.00;19.50;;;23.10;50.60;;;;;;221734;1260;24225;-58
2023/01/20 11:40:28;;;;;;;23.30;19.60;;;23.20;50.50;;;;;;221550;1248;22685;-58
2023/01/20 11:45:34;;;;;;;22.30;18.60;;;23.30;50.50;;;;;;221848;1258;22553;-58
2023/01/20 11:50:56;;;;;;;23.00;19.90;;;23.20;50.90;;;;;;221586;1271;25355;-58
2023/01/20 11:56:22;;;;;;;20.50;17.90;;;23.30;50.30;;;;;;221470;1256;26568;-59
2023/01/20 12:01:29;;;;;;;19.80;17.50;;;23.30;50.40;;;;;;221580;1270;22614;-58
2023/01/20 12:06:48;;;;;;;21.50;19.20;;;23.40;50.30;;;;;;221742;1250;25404;-58
2023/01/20 12:11:56;;;;;;;21.10;16.90;;;23.40;50.20;;;;;;221899;1263;24373;-58
2023/01/20 12:17:19;;;;;;;21.10;17.90;;;23.50;50.10;;;;;;221580;1264;22547;-59
2023/01/20 12:22:30;;;;;;;19.10;17.10;;;23.60;50.00;;;;;;221724;1263;22527;-58
2023/01/20 13:25:35;;;;;;;19.30;16.20;;;22.70;51.80;;;;;;221183;1256;25168;-58
2023/01/20 13:30:46;;;;;;;17.60;15.60;;;22.70;52.10;;;;;;221824;1264;23471;-58
2023/01/20 13:35:51;;;;;;;;;;;22.60;51.60;;;;;;221727;1264;23134;-57
2023/01/20 13:41:04;;;;;;;16.50;14.70;;;22.60;51.80;;;;;;221574;1269;22556;-57
2023/01/20 13:46:08;;;;;;;16.00;14.40;;;22.50;51.90;;;;;;221767;1253;25957;-57
2023/01/20 13:51:28;;;;;;;18.00;15.50;;;22.40;51.80;;;;;;221752;1264;25719;-57
2023/01/20 13:56:32;;;;;;;16.70;15.00;;;22.40;51.80;;;;;;221667;1253;24887;-58
2023/01/20 14:01:38;;;;;;;16.00;14.40;;;22.30;51.90;;;;;;221993;1257;22586;-58
2023/01/20 14:06:47;;;;;;;16.10;14.40;;;22.30;52.30;;;;;;221545;1271;22531;-55
2023/01/20 14:11:54;;;;;;;15.50;13.90;;;22.20;52.60;;;;;;221318;1264;221958;-58
2023/01/20 14:17:00;;;;;;;16.50;14.60;;;22.20;52.20;;;;;;221657;1250;25437;-57
2023/01/20 14:22:22;;;;;;;17.20;15.20;;;22.10;52.10;;;;;;221599;1260;24376;-55
2023/01/20 14:27:36;;;;;;;15.00;13.30;;;22.20;52.00;;;;;;225377;1250;26641;-57
2023/01/20 14:32:41;;;;;;;15.80;14.20;;;22.10;51.90;;;;;;221860;1256;25434;-57
2023/01/20 14:37:50;;;;;;;16.90;14.60;;;22.10;51.80;;;;;;221795;1256;22526;-58
2023/01/20 14:42:59;;;;;;;15.40;13.80;;;22.00;52.40;;;;;;221818;1270;22740;-57
2023/01/20 14:48:04;;;;;;;16.50;13.50;;;22.00;52.40;;;;;;221737;1247;24244;-58
2023/01/20 14:53:14;;;;;;;14.50;13.00;;;21.90;52.20;;;;;;221821;1259;22587;-56
2023/01/20 14:58:18;;;;;;;16.20;13.90;;;21.90;52.20;;;;;;221829;1256;22817;-58
2023/01/20 15:03:28;;;;;;;16.20;14.30;;;21.80;52.10;;;;;;221852;1267;24282;-57
2023/01/20 15:08:32;;;;;;;16.80;13.30;;;21.80;52.20;;;;;;221895;1267;25197;-58
2023/01/20 15:13:38;;;;;;;14.70;13.00;;;21.80;52.30;;;;;;221918;1251;22768;-57
2023/01/20 15:18:42;;;;;;;15.20;13.20;;;21.70;52.20;;;;;;221839;1257;22542;-57
2023/01/20 15:23:51;;;;;;;14.30;12.70;;;21.70;52.60;;;;;;221899;1259;22535;-55
2023/01/20 15:28:56;;;;;;;15.30;12.90;;;21.60;52.50;;;;;;221882;1266;22519;-58
2023/01/20 15:34:02;;;;;;;14.00;12.60;;;21.90;52.30;;;;;;221762;1256;22536;-57
2023/01/20 15:39:12;;;;;;;14.70;12.90;;;22.30;51.30;;;;;;221581;1266;23940;-55
2023/01/20 15:44:16;;;;;;;14.90;12.50;;;22.60;50.30;;;;;;221692;1250;22647;-55
2023/01/20 15:49:20;;;;;;;17.70;13.60;;;22.80;50.10;;;;;;221743;1248;22552;-56
2023/01/20 15:54:24;;;;;;;14.10;12.10;;;22.90;50.20;;;;;;221812;1263;22547;-56
2023/01/20 15:59:29;;;;;;;13.10;11.70;;;23.10;49.80;;;;;;222174;1258;22732;-57
2023/01/20 16:04:33;;;;;;;16.50;12.40;;;23.20;49.60;;;;;;221939;1270;22767;-58
2023/01/20 16:09:37;;;;;;;12.50;10.90;;;23.20;49.40;;;;;;221860;1263;22542;-58
2023/01/20 16:14:42;;;;;;;18.80;11.70;;;23.20;50.20;;;;;;222008;1263;22530;-60
2023/01/20 16:19:47;;;;;;;12.40;10.60;;;23.30;50.00;;;;;;222230;1269;24353;-59
2023/01/20 16:24:51;;;;;;;13.10;11.10;;;23.30;49.50;;;;;;221797;1248;24250;-58
2023/01/20 16:29:55;;;;;;;12.20;10.70;;;23.40;49.20;;;;;;221539;1264;22990;-59
2023/01/20 16:35:00;;;;;;;13.00;10.40;;;23.40;49.20;;;;;;221534;1264;22541;-58
2023/01/20 16:40:05;;;;;;;12.90;10.60;;;23.40;49.50;;;;;;221786;1267;22577;-57
2023/01/20 16:45:36;;;;;;;12.20;11.00;;;23.60;48.90;;;;;;221746;1256;24343;-58
2023/01/20 16:50:41;;;;;;;12.60;10.50;;;23.60;48.90;;;;;;221768;1255;24306;-59
2023/01/20 16:55:48;;;;;;;12.10;10.70;;;23.60;48.90;;;;;;221679;1270;22632;-59
2023/01/20 17:00:52;;;;;;;12.70;10.20;;;23.70;48.90;;;;;;221665;1266;22669;-60
2023/01/20 17:05:57;;;;;;;13.20;10.30;;;23.60;48.90;;;;;;220943;1261;22535;-58
2023/01/20 17:11:02;;;;;;;15.00;10.90;;;23.60;49.20;;;;;;220847;1269;23922;-59
2023/01/20 17:16:07;;;;;;;14.70;10.70;;;23.50;49.10;;;;;;220863;1269;24244;-58
2023/01/20 17:21:13;;;;;;;11.50;10.30;;;23.40;49.30;;;;;;220874;1269;24216;-58
2023/01/20 17:26:18;;;;;;;11.40;10.10;;;23.30;49.30;;;;;;221605;1256;24196;-57
2023/01/20 17:31:23;;;;;;;13.90;10.80;;;23.20;49.80;;;;;;221580;1247;24221;-59
2023/01/20 17:36:28;;;;;;;11.30;10.10;;;23.10;49.70;;;;;;221535;1266;25350;-59
2023/01/20 17:41:35;;;;;;;13.10;10.30;;;23.00;50.10;;;;;;221625;1262;25374;-56
2023/01/20 17:46:40;;;;;;;14.30;11.80;;;22.90;50.40;;;;;;221176;1250;24272;-56
2023/01/20 17:51:44;;;;;;;14.00;11.90;;;22.80;50.60;;;;;;221618;1259;22717;-57
2023/01/20 17:56:48;;;;;;;17.70;13.30;;;22.70;50.20;;;;;;221700;1255;24762;-57
2023/01/20 18:01:54;;;;;;;17.40;12.30;;;22.60;50.10;;;;;;222025;1259;24355;-59
2023/01/20 18:06:59;;;;;;;25.50;13.00;;;22.60;50.70;;;;;;221959;1263;23636;-58
2023/01/20 18:12:05;;;;;;;22.50;14.50;;;22.60;50.80;;;;;;221567;1247;25332;-58
2023/01/20 18:17:10;;;;;;;27.30;14.50;;;22.70;51.60;;;;;;221592;1255;25313;-59
2023/01/20 18:22:17;;;;;;;20.40;15.30;;;22.60;51.40;;;;;;221599;1257;24225;-57
2023/01/20 18:27:25;;;;;;;28.60;15.90;;;22.50;52.30;;;;;;221388;1257;25297;-59
2023/01/20 18:32:30;;;;;;;22.10;15.00;;;22.30;52.70;;;;;;221655;1254;22532;-56
2023/01/20 18:37:42;;;;;;;18.90;15.00;;;22.40;52.20;;;;;;220366;1261;22569;-56
2023/01/20 18:42:47;;;;;;;58.60;36.70;;;22.40;52.40;;;;;;220496;1271;22560;-55
2023/01/20 18:47:52;;;;;;;34.80;26.20;;;22.30;53.90;;;;;;220399;1274;24209;-56
2023/01/20 18:52:58;;;;;;;51.20;25.50;;;22.20;54.10;;;;;;220736;1271;24366;-56
2023/01/20 18:58:03;;;;;;;33.10;23.70;;;22.10;53.60;;;;;;220611;1268;22672;-55
2023/01/20 19:03:09;;;;;;;32.80;23.50;;;22.10;53.30;;;;;;221714;1263;23516;-50
2023/01/20 19:08:15;;;;;;;36.90;23.70;;;22.00;53.60;;;;;;221734;1257;22536;-50
2023/01/20 19:13:31;;;;;;;36.50;24.40;;;22.00;53.50;;;;;;229714;1263;22170;-54
2023/01/20 19:18:37;;;;;;;35.30;24.10;;;22.10;53.40;;;;;;223827;1267;22584;-50
2023/01/20 19:23:48;;;;;;;31.90;26.10;;;22.30;55.10;;;;;;221757;1261;22626;-52
2023/01/20 19:28:58;;;;;;;39.70;26.10;;;22.10;55.40;;;;;;221905;1263;24215;-53
2023/01/20 19:34:05;;;;;;;39.20;26.60;;;22.00;54.20;;;;;;221864;1263;22524;-48
2023/01/20 19:39:11;;;;;;;38.30;24.90;;;21.80;54.70;;;;;;221867;1256;25250;-49
2023/01/20 19:44:18;;;;;;;35.40;25.30;;;21.90;54.00;;;;;;221981;1264;23886;-46
2023/01/20 19:49:23;;;;;;;37.40;24.30;;;21.80;53.80;;;;;;221841;1267;25303;-51
2023/01/20 19:54:32;;;;;;;36.00;25.20;;;21.80;54.70;;;;;;221897;1270;22642;-51
2023/01/20 19:59:39;;;;;;;41.20;25.80;;;22.00;54.30;;;;;;222528;1266;25449;-50
2023/01/20 20:04:45;;;;;;;34.90;26.60;;;22.00;54.50;;;;;;221851;1257;25357;-50
2023/01/20 20:09:51;;;;;;;38.80;28.10;;;22.10;53.70;;;;;;221865;1267;25355;-52
2023/01/20 20:15:00;;;;;;;35.70;26.20;;;22.20;54.00;;;;;;221850;1259;25307;-51
2023/01/20 20:20:05;;;;;;;40.90;28.40;;;22.10;55.20;;;;;;222018;1267;23087;-46
2023/01/20 20:25:13;;;;;;;37.30;28.00;;;21.80;55.50;;;;;;221654;1259;25180;-51
2023/01/20 20:30:19;;;;;;;37.50;29.20;;;21.70;55.50;;;;;;221900;1269;25594;-50
2023/01/20 20:35:25;;;;;;;37.50;29.60;;;21.70;55.10;;;;;;221877;1267;22539;-52
2023/01/20 20:40:31;;;;;;;39.20;29.50;;;21.80;54.10;;;;;;221833;1263;22551;-46
2023/01/20 20:45:37;;;;;;;36.30;27.90;;;21.60;54.50;;;;;;221715;1258;24379;-49
2023/01/20 20:50:46;;;;;;;39.90;29.20;;;21.60;54.80;;;;;;221822;1259;25543;-52
2023/01/20 20:55:57;;;;;;;39.50;28.40;;;21.50;54.80;;;;;;221873;1263;25501;-52
2023/01/20 21:01:03;;;;;;;42.90;29.50;;;21.50;55.00;;;;;;221827;1263;22564;-53
2023/01/20 21:06:14;;;;;;;40.60;27.20;;;21.50;54.20;;;;;;223191;1257;22744;-52
2023/01/20 21:11:20;;;;;;;35.90;27.50;;;21.60;54.30;;;;;;222022;1264;25356;-52
2023/01/20 21:16:26;;;;;;;32.40;25.80;;;21.60;54.10;;;;;;222648;1271;24338;-52
2023/01/20 21:21:32;;;;;;;35.60;26.70;;;21.50;53.70;;;;;;221779;1260;22553;-52
2023/01/20 21:26:37;;;;;;;37.40;27.00;;;21.30;54.40;;;;;;221659;1269;22663;-53
2023/01/20 21:31:42;;;;;;;32.50;26.20;;;21.20;54.50;;;;;;221800;1266;25590;-52
2023/01/20 21:36:46;;;;;;;42.20;28.00;;;21.20;54.60;;;;;;221919;1269;22533;-53
2023/01/20 21:41:50;;;;;;;33.80;24.70;;;21.30;56.60;;;;;;221848;1247;22644;-53
2023/01/20 21:47:12;;;;;;;32.20;23.70;;;21.90;57.80;;;;;;221795;1270;22632;-54
2023/01/20 21:57:43;;;;;;;33.70;24.60;;;22.70;54.50;;;;;;221855;1270;25472;-53
2023/01/20 22:02:47;;;;;;;32.50;22.70;;;22.90;54.50;;;;;;221856;1263;22605;-51
2023/01/20 22:07:52;;;;;;;33.40;22.00;;;23.00;54.30;;;;;;221668;1259;23933;-50
2023/01/20 22:12:56;;;;;;;28.30;22.40;;;23.40;53.50;;;;;;221794;1269;22626;-52
2023/01/20 22:18:00;;;;;;;30.50;23.30;;;23.40;53.10;;;;;;221848;1263;23803;-55
2023/01/20 22:23:04;;;;;;;32.20;21.90;;;23.30;53.30;;;;;;221723;1260;25606;-51
2023/01/20 22:28:08;;;;;;;30.40;21.80;;;23.30;53.20;;;;;;221699;1263;24221;-56
2023/01/20 22:33:12;;;;;;;28.10;22.60;;;23.20;53.60;;;;;;221711;1257;22556;-57
2023/01/20 22:38:16;;;;;;;26.90;22.10;;;23.00;54.30;;;;;;221886;1265;22757;-53
2023/01/20 22:43:20;;;;;;;25.30;21.10;;;22.70;54.10;;;;;;221833;1264;22527;-55
2023/01/20 22:48:24;;;;;;;35.10;21.80;;;22.60;54.30;;;;;;221979;1267;27875;-58
2023/01/20 22:53:30;;;;;;;28.20;21.70;;;22.60;60.70;;;;;;221731;1254;22642;-54
2023/01/20 22:58:34;;;;;;;25.50;21.30;;;22.70;56.60;;;;;;221686;1266;25551;-52
2023/01/20 23:03:39;;;;;;;30.10;21.30;;;22.60;55.80;;;;;;221771;1263;22546;-54
2023/01/20 23:08:43;;;;;;;30.50;20.90;;;22.50;55.50;;;;;;221808;1250;22541;-53
2023/01/20 23:13:48;;;;;;;24.90;20.80;;;22.50;56.20;;;;;;221989;1263;22581;-52
2023/01/20 23:18:52;;;;;;;32.00;21.20;;;22.50;56.90;;;;;;222523;1260;23755;-52
2023/01/20 23:23:57;;;;;;;28.00;21.60;;;22.40;56.40;;;;;;227693;1269;22531;-52
2023/01/20 23:29:01;;;;;;;26.80;19.90;;;22.30;56.20;;;;;;221802;1252;22545;-52
2023/01/20 23:34:05;;;;;;;29.20;19.70;;;22.20;56.30;;;;;;221821;1270;22779;-52
2023/01/20 23:39:09;;;;;;;24.40;19.60;;;22.00;56.80;;;;;;221808;1260;22639;-52
2023/01/20 23:44:13;;;;;;;23.40;19.50;;;21.80;57.80;;;;;;221655;1267;23924;-48
2023/01/20 23:49:18;;;;;;;23.60;19.70;;;21.60;57.60;;;;;;222071;1270;22531;-51
2023/01/20 23:54:25;;;;;;;23.40;20.00;;;21.50;57.70;;;;;;221822;1271;22560;-51
2023/01/20 23:59:28;;;;;;;21.40;19.20;;;21.50;57.40;;;;;;221987;1256;23907;-49
